Time;durP1;ratioP1;P1;durP2;ratioP2;P2;SDS_P1;SDS_P2;PMS_P1;PMS_P2;Temp;Humidity;BMP_temperature;BMP_pressure;BME280_temperature;BME280_humidity;BME280_pressure;Samples;Min_cycle;Max_cycle;Signal;HPM_P1;HPM_P2
2021/07/21 00:00:46;;;;;;;3.60;1.70;;;;;;;14.66;59.56;101024.34;5084623;28;20651;-72
2021/07/21 00:03:15;;;;;;;4.23;1.67;;;;;;;14.63;60.02;101027.31;5087703;28;20280;-72
2021/07/21 00:05:44;;;;;;;1.63;1.40;;;;;;;14.54;60.54;101034.31;5085988;28;20708;-73
2021/07/21 00:08:12;;;;;;;2.70;1.50;;;;;;;14.54;60.74;101041.56;5087740;28;20219;-72
2021/07/21 00:10:41;;;;;;;5.83;1.80;;;;;;;14.28;60.50;100985.03;5082958;28;20231;-67
2021/07/21 00:13:29;;;;;;;2.30;1.70;;;;;;;14.67;60.67;101039.59;5079723;28;20188;-67
2021/07/21 00:16:05;;;;;;;3.07;1.60;;;;;;;14.84;60.14;101052.63;5081393;28;20672;-67
2021/07/21 00:18:37;;;;;;;2.30;1.50;;;;;;;14.99;59.55;101053.22;5089061;28;20281;-67
2021/07/21 00:21:05;;;;;;;3.57;1.53;;;;;;;15.00;60.23;101063.09;5086010;28;20251;-67
2021/07/21 00:23:35;;;;;;;2.40;1.37;;;;;;;15.03;60.03;101056.56;5087727;28;20197;-66
2021/07/21 00:26:03;;;;;;;1.93;1.60;;;;;;;14.97;59.97;101041.66;5082983;28;20575;-66
2021/07/21 00:28:34;;;;;;;2.53;1.43;;;;;;;15.19;59.55;101068.69;5083519;28;20211;-71
2021/07/21 00:31:03;;;;;;;2.17;1.60;;;;;;;15.16;60.34;101076.22;5073535;28;20205;-71
2021/07/21 00:33:31;;;;;;;1.77;1.47;;;;;;;14.94;61.38;101038.34;5077744;28;20595;-71
2021/07/21 00:35:59;;;;;;;1.30;1.20;;;;;;;15.16;62.29;101074.38;5084938;28;20597;-71
2021/07/21 00:38:27;;;;;;;2.73;1.40;;;;;;;15.19;62.63;101087.63;5085416;28;20287;-71
2021/07/21 00:40:56;;;;;;;1.50;1.37;;;;;;;15.32;61.97;101092.06;5082024;28;20197;-72
2021/07/21 00:43:26;;;;;;;1.93;1.60;;;;;;;15.20;63.29;101102.88;5080330;28;20665;-71
2021/07/21 00:45:55;;;;;;;2.03;1.40;;;;;;;15.25;63.68;101101.66;5085577;28;20224;-70
2021/07/21 00:48:25;;;;;;;1.67;1.57;;;;;;;15.18;63.83;101102.16;5079875;28;20262;-71
2021/07/21 00:50:55;;;;;;;1.60;1.30;;;;;;;15.21;64.05;101112.72;5082364;28;20201;-72
2021/07/21 00:53:24;;;;;;;4.87;1.43;;;;;;;15.17;64.59;101108.56;5085853;28;20204;-71
2021/07/21 00:55:53;;;;;;;2.20;1.47;;;;;;;15.20;64.10;101123.66;5081802;28;20232;-71
2021/07/21 00:58:22;;;;;;;1.60;1.20;;;;;;;15.12;64.86;101115.31;5084122;28;20193;-72
2021/07/21 01:00:50;;;;;;;2.13;1.47;;;;;;;15.20;64.17;101121.81;5084242;28;20598;-71
2021/07/21 01:03:20;;;;;;;2.13;1.37;;;;;;;15.17;64.34;101126.63;5081850;28;20611;-71
2021/07/21 01:05:48;;;;;;;1.60;1.20;;;;;;;15.08;64.86;101122.84;5082311;28;20231;-72
2021/07/21 01:08:17;;;;;;;1.60;1.40;;;;;;;15.05;65.41;101135.75;5087624;28;20213;-72
2021/07/21 01:11:31;;;;;;;1.53;1.30;;;;;;;15.07;65.30;101137.34;5073403;28;20305;-71
2021/07/21 01:14:05;;;;;;;1.30;1.20;;;;;;;15.04;64.75;101140.28;5086085;28;20193;-71
2021/07/21 01:16:44;;;;;;;1.77;1.30;;;;;;;15.07;64.64;101137.34;5081347;28;20261;-71
2021/07/21 01:19:22;;;;;;;1.60;1.50;;;;;;;15.07;64.80;101142.75;5086828;28;20195;-67
2021/07/21 01:22:13;;;;;;;2.80;1.50;;;;;;;14.81;64.54;101114.22;5082837;28;20698;-67
2021/07/21 01:25:07;;;;;;;1.37;1.10;;;;;;;14.97;65.41;101141.75;5084879;28;20200;-67
2021/07/21 01:27:58;;;;;;;1.47;1.37;;;;;;;14.97;64.78;101130.94;5080917;28;20318;-67
2021/07/21 01:30:30;;;;;;;2.23;1.50;;;;;;;14.87;65.46;101144.34;5088248;28;20216;-68
2021/07/21 01:33:03;;;;;;;2.30;1.47;;;;;;;14.85;66.19;101145.44;5089880;28;20221;-67
2021/07/21 01:35:38;;;;;;;3.00;1.50;;;;;;;14.81;65.98;101146.66;5084057;28;20687;-67
2021/07/21 01:38:10;;;;;;;1.53;1.20;;;;;;;14.80;66.35;101139.53;5088959;28;20199;-67
2021/07/21 01:40:43;;;;;;;1.80;1.40;;;;;;;14.76;65.87;101147.03;5087913;28;20259;-67
2021/07/21 01:43:18;;;;;;;1.80;1.20;;;;;;;14.71;66.72;101149.25;5101024;28;20214;-67
2021/07/21 01:45:47;;;;;;;2.03;1.30;;;;;;;14.71;66.95;101151.09;5085276;28;20203;-67
2021/07/21 01:48:20;;;;;;;3.10;1.40;;;;;;;14.70;66.51;101158.34;5077062;28;20649;-67
2021/07/21 01:50:50;;;;;;;1.37;1.10;;;;;;;14.69;66.56;101155.72;5083279;28;20291;-68
2021/07/21 01:53:21;;;;;;;1.20;1.10;;;;;;;14.62;67.04;101160.75;5085716;28;20219;-67
2021/07/21 01:55:51;;;;;;;4.30;1.23;;;;;;;14.56;67.34;101155.84;5082425;28;20668;-68
2021/07/21 01:58:26;;;;;;;2.83;1.37;;;;;;;14.51;67.18;101149.94;5080529;28;20204;-67
2021/07/21 02:01:12;;;;;;;1.20;1.10;;;;;;;14.53;67.24;101165.03;5083535;28;20201;-67
2021/07/21 02:03:41;;;;;;;3.57;1.30;;;;;;;14.59;67.37;101169.09;5087487;28;20216;-67
2021/07/21 02:06:17;;;;;;;1.97;1.10;;;;;;;14.59;66.80;101167.25;5085625;28;20307;-67
2021/07/21 02:08:47;;;;;;;1.10;1.00;;;;;;;14.53;67.67;101167.75;5086708;28;20231;-67
2021/07/21 02:11:22;;;;;;;1.50;1.20;;;;;;;14.50;67.33;101169.81;5081285;28;20208;-68
2021/07/21 02:13:56;;;;;;;5.73;1.30;;;;;;;14.45;68.05;101172.03;5086343;28;20783;-67
2021/07/21 02:16:35;;;;;;;3.83;1.10;;;;;;;14.44;67.24;101170.31;5079745;28;20575;-67
2021/07/21 02:19:08;;;;;;;1.50;1.03;;;;;;;14.47;67.48;101175.47;5077325;28;20632;-67
2021/07/21 02:21:53;;;;;;;5.40;1.13;;;;;;;14.49;66.92;101173.50;5084582;28;20546;-68
2021/07/21 02:24:23;;;;;;;1.30;1.00;;;;;;;14.49;66.71;101176.22;5089174;28;20218;-67
2021/07/21 02:27:09;;;;;;;0.83;0.83;;;;;;;14.52;66.47;101179.53;5083869;28;20215;-67
2021/07/21 02:29:39;;;;;;;1.13;0.80;;;;;;;14.51;66.73;101185.06;5081978;28;20200;-72
2021/07/21 02:32:12;;;;;;;1.30;0.90;;;;;;;14.58;66.25;101195.28;5088045;28;20213;-72
2021/07/21 02:34:44;;;;;;;1.13;1.00;;;;;;;14.67;65.67;101195.53;5087678;28;20668;-72
2021/07/21 02:37:15;;;;;;;1.70;1.00;;;;;;;14.69;65.22;101194.44;5087296;28;20233;-72
2021/07/21 02:39:49;;;;;;;1.63;1.23;;;;;;;14.74;65.05;101207.63;5091117;28;20282;-73
2021/07/21 02:42:20;;;;;;;1.17;1.07;;;;;;;14.71;64.24;101180.81;5085682;28;20537;-72
2021/07/21 02:44:52;;;;;;;1.23;1.00;;;;;;;14.53;63.39;101151.53;5084937;28;20185;-72
2021/07/21 02:47:21;;;;;;;3.03;0.90;;;;;;;14.13;64.08;101083.47;5084240;28;20613;-72
2021/07/21 02:49:57;;;;;;;2.67;1.10;;;;;;;15.02;63.52;101223.41;5078540;28;20402;-73
2021/07/21 02:52:33;;;;;;;5.40;0.77;;;;;;;14.99;63.18;101226.34;5090053;28;20700;-73
2021/07/21 02:55:14;;;;;;;1.93;0.77;;;;;;;15.03;63.27;101225.13;5089691;28;20205;-73
2021/07/21 02:57:49;;;;;;;1.07;0.80;;;;;;;15.16;63.68;101225.00;5082870;28;20200;-72
2021/07/21 03:00:25;;;;;;;0.90;0.80;;;;;;;15.45;63.66;101237.09;5085242;28;20257;-72
2021/07/21 03:03:11;;;;;;;1.67;0.90;;;;;;;15.81;63.07;101237.81;5088229;28;20271;-72
2021/07/21 03:05:44;;;;;;;2.27;0.97;;;;;;;16.11;62.11;101246.13;5070852;28;20197;-72
2021/07/21 03:08:19;;;;;;;0.83;0.83;;;;;;;16.43;61.36;101251.56;5082079;28;20220;-72
2021/07/21 03:10:55;;;;;;;1.03;0.80;;;;;;;16.81;60.45;101254.75;5089036;28;20208;-72
2021/07/21 03:13:27;;;;;;;2.27;0.87;;;;;;;17.15;59.65;101253.59;5088020;28;20211;-72
2021/07/21 03:15:59;;;;;;;2.13;1.10;;;;;;;17.12;58.55;101209.53;5072478;28;20208;-72
2021/07/21 03:18:41;;;;;;;1.37;0.90;;;;;;;17.60;58.03;101259.53;5083238;28;20684;-73
2021/07/21 03:21:11;;;;;;;2.10;0.70;;;;;;;17.71;57.60;101266.72;5074391;28;20662;-72
2021/07/21 03:23:45;;;;;;;1.80;0.80;;;;;;;17.69;57.69;101261.44;5088668;28;20196;-72
2021/07/21 03:26:34;;;;;;;1.20;0.90;;;;;;;17.72;57.09;101262.16;5090413;28;20262;-72
2021/07/21 03:29:09;;;;;;;0.93;0.70;;;;;;;17.44;57.24;101237.41;5084011;28;20216;-72
2021/07/21 03:31:41;;;;;;;2.50;1.10;;;;;;;17.38;57.77;101265.13;5082105;28;20223;-72
2021/07/21 03:34:14;;;;;;;1.27;0.70;;;;;;;17.29;57.20;101268.66;5088368;28;20196;-72
2021/07/21 03:36:54;;;;;;;0.73;0.70;;;;;;;17.25;57.80;101275.34;5089233;28;20281;-72
2021/07/21 03:39:42;;;;;;;0.60;0.60;;;;;;;17.26;57.21;101271.66;5087381;28;20215;-72
2021/07/21 03:42:31;;;;;;;3.70;0.87;;;;;;;17.27;57.29;101279.66;5066823;28;20216;-72
2021/07/21 03:45:05;;;;;;;1.63;0.87;;;;;;;17.15;56.34;101274.44;5088669;28;20213;-72
2021/07/21 03:47:36;;;;;;;2.03;0.70;;;;;;;17.26;56.90;101282.50;5078894;28;20240;-67
2021/07/21 03:50:09;;;;;;;1.47;0.90;;;;;;;17.27;56.35;101274.22;5088312;28;20204;-67
2021/07/21 03:52:41;;;;;;;0.60;0.60;;;;;;;17.31;56.17;101286.53;5101383;28;20196;-68
2021/07/21 03:55:12;;;;;;;1.87;0.80;;;;;;;17.36;56.47;101295.13;5086102;28;20205;-67
2021/07/21 03:57:58;;;;;;;0.50;0.50;;;;;;;17.41;56.46;101292.00;5087254;28;20288;-68
2021/07/21 04:00:38;;;;;;;2.50;0.70;;;;;;;17.39;56.47;101294.84;5081416;28;20199;-67
2021/07/21 04:03:10;;;;;;;0.70;0.63;;;;;;;17.24;56.99;101285.34;5077664;28;20197;-67
2021/07/21 04:05:55;;;;;;;0.60;0.60;;;;;;;17.30;56.69;101308.38;5087411;28;21223;-67
2021/07/21 04:08:28;;;;;;;1.10;0.83;;;;;;;17.27;56.76;101293.22;5075316;28;20739;-67
2021/07/21 04:11:00;;;;;;;0.80;0.60;;;;;;;17.28;56.69;101302.22;5080771;28;20204;-67
2021/07/21 04:13:34;;;;;;;0.90;0.60;;;;;;;17.23;56.36;101304.50;5079510;28;20293;-67
2021/07/21 04:16:16;;;;;;;0.87;0.70;;;;;;;17.25;57.18;101308.78;5078109;28;20901;-68
2021/07/21 04:18:47;;;;;;;0.80;0.57;;;;;;;17.28;56.49;101313.09;5083497;28;20646;-67
2021/07/21 04:21:17;;;;;;;1.33;0.60;;;;;;;17.29;56.72;101325.66;5082397;28;20567;-72
2021/07/21 04:23:50;;;;;;;0.67;0.57;;;;;;;17.15;57.12;101334.16;5088019;28;20209;-73
2021/07/21 04:26:21;;;;;;;0.80;0.80;;;;;;;17.15;56.43;101317.88;5078323;28;20308;-72
2021/07/21 04:28:50;;;;;;;0.70;0.63;;;;;;;17.13;57.20;101327.97;5101864;28;20250;-72
2021/07/21 04:31:26;;;;;;;0.53;0.50;;;;;;;16.89;57.61;101322.81;5081515;28;20203;-72
2021/07/21 04:33:58;;;;;;;1.03;0.90;;;;;;;16.87;57.15;101336.50;5084179;28;20195;-72
2021/07/21 04:36:29;;;;;;;0.93;0.60;;;;;;;16.72;56.86;101338.66;5084620;28;20341;-73
2021/07/21 04:38:58;;;;;;;3.73;0.63;;;;;;;16.71;56.54;101342.34;5086195;28;20267;-72
2021/07/21 04:41:30;;;;;;;0.53;0.50;;;;;;;16.63;56.98;101349.38;5087334;28;20283;-71
2021/07/21 04:44:14;;;;;;;2.87;0.70;;;;;;;16.65;56.97;101350.13;5077176;28;20645;-71
2021/07/21 04:46:55;;;;;;;0.40;0.40;;;;;;;16.68;56.99;101347.19;5080409;28;20232;-71
2021/07/21 04:49:27;;;;;;;0.57;0.57;;;;;;;16.69;57.91;101351.63;5085345;28;20609;-71
2021/07/21 04:52:02;;;;;;;0.67;0.43;;;;;;;16.56;57.41;101342.75;5083614;28;20185;-71
2021/07/21 04:54:34;;;;;;;1.87;0.53;;;;;;;16.62;57.28;101361.22;5101657;28;20751;-72
2021/07/21 04:57:07;;;;;;;0.47;0.40;;;;;;;16.67;58.41;101348.16;5086265;28;20215;-67
2021/07/21 05:00:02;;;;;;;0.60;0.60;;;;;;;16.79;57.91;101349.84;5070465;28;20216;-67
2021/07/21 05:02:46;;;;;;;1.90;0.50;;;;;;;16.94;57.06;101353.13;5084510;28;20332;-67
2021/07/21 05:05:17;;;;;;;1.40;0.70;;;;;;;17.05;57.28;101350.34;5082786;28;20197;-66
2021/07/21 05:07:59;;;;;;;0.77;0.30;;;;;;;17.02;55.47;101356.03;5074048;28;20208;-66
2021/07/21 05:10:29;;;;;;;0.40;0.40;;;;;;;16.95;55.85;101357.56;5080397;28;20203;-71
2021/07/21 05:12:58;;;;;;;1.50;0.70;;;;;;;17.11;55.01;101348.97;5087423;28;20651;-71
2021/07/21 05:15:31;;;;;;;0.50;0.50;;;;;;;16.88;54.54;101321.94;5088393;28;20599;-70
2021/07/21 05:18:11;;;;;;;0.50;0.43;;;;;;;17.26;55.35;101348.53;5079430;28;20210;-71
2021/07/21 05:20:46;;;;;;;0.87;0.60;;;;;;;17.53;54.37;101361.56;5082127;28;20791;-71
2021/07/21 05:23:18;;;;;;;0.97;0.57;;;;;;;17.63;54.38;101365.19;5096175;28;20205;-71
2021/07/21 05:26:00;;;;;;;1.90;0.50;;;;;;;17.84;54.18;101351.63;5078784;28;20212;-71
2021/07/21 05:28:49;;;;;;;1.80;0.50;;;;;;;18.16;53.13;101350.59;5077470;28;20220;-71
2021/07/21 05:31:40;;;;;;;0.87;0.40;;;;;;;18.38;53.29;101363.13;5065541;28;20217;-72
2021/07/21 05:34:27;;;;;;;2.13;0.77;;;;;;;18.41;52.45;101362.84;5079791;28;20201;-69
2021/07/21 05:37:23;;;;;;;0.30;0.30;;;;;;;18.41;50.73;101365.56;5076927;28;20523;-66
2021/07/21 05:39:56;;;;;;;0.97;0.47;;;;;;;18.70;51.20;101361.06;5080710;28;20523;-66
2021/07/21 05:42:44;;;;;;;0.83;0.60;;;;;;;18.62;50.74;101360.88;5083193;28;20630;-66
2021/07/21 05:45:13;;;;;;;0.53;0.47;;;;;;;18.66;49.43;101366.91;5088218;28;20200;-66
2021/07/21 05:47:42;;;;;;;0.40;0.40;;;;;;;18.87;50.46;101364.94;5084624;28;20621;-66
2021/07/21 05:50:12;;;;;;;1.60;0.40;;;;;;;19.04;50.04;101363.38;5089120;28;20212;-66
2021/07/21 05:53:10;;;;;;;1.30;0.50;;;;;;;19.19;49.67;101361.94;5078184;28;20209;-71
2021/07/21 05:55:44;;;;;;;0.40;0.40;;;;;;;19.25;48.93;101385.84;5083054;28;20249;-71
2021/07/21 05:58:17;;;;;;;2.30;0.60;;;;;;;19.46;48.49;101385.69;5096123;28;20282;-66
2021/07/21 06:00:47;;;;;;;0.60;0.40;;;;;;;19.55;48.90;101390.28;5077493;28;20649;-65
2021/07/21 06:03:24;;;;;;;0.97;0.50;;;;;;;19.49;48.22;101390.84;5076032;28;20205;-65
2021/07/21 06:06:19;;;;;;;0.97;0.40;;;;;;;19.37;48.25;101398.34;5065853;28;20215;-71
2021/07/21 06:09:11;;;;;;;0.40;0.40;;;;;;;19.32;47.51;101397.91;5084044;28;20388;-71
2021/07/21 06:11:54;;;;;;;0.30;0.30;;;;;;;19.15;47.27;101360.50;5086662;28;20208;-66
2021/07/21 06:14:23;;;;;;;0.47;0.47;;;;;;;19.72;47.27;101399.59;5085471;28;20232;-66
2021/07/21 06:16:58;;;;;;;1.90;0.47;;;;;;;19.92;47.34;101397.69;5088203;28;20687;-66
2021/07/21 06:19:29;;;;;;;2.73;0.53;;;;;;;20.27;47.76;101410.63;5088413;28;20214;-66
2021/07/21 06:22:00;;;;;;;0.40;0.40;;;;;;;20.29;47.12;101412.19;5088285;28;20240;-66
2021/07/21 06:24:39;;;;;;;1.13;0.40;;;;;;;20.24;46.39;101417.22;5090163;28;20223;-66
2021/07/21 06:27:17;;;;;;;0.93;0.30;;;;;;;20.33;46.62;101415.47;5089139;28;20676;-67
2021/07/21 06:29:51;;;;;;;0.47;0.40;;;;;;;20.39;45.71;101423.03;5079980;28;20217;-65
2021/07/21 06:32:19;;;;;;;0.43;0.43;;;;;;;20.50;45.78;101431.06;5086853;28;20192;-66
2021/07/21 06:34:49;;;;;;;0.23;0.23;;;;;;;20.36;45.90;101426.94;5089515;28;20254;-71
2021/07/21 06:37:17;;;;;;;2.17;0.80;;;;;;;20.55;45.45;101426.03;5089289;28;20197;-72
2021/07/21 06:39:51;;;;;;;0.40;0.40;;;;;;;20.71;45.16;101434.38;5089512;28;20193;-66
2021/07/21 06:42:19;;;;;;;1.03;0.47;;;;;;;20.93;45.58;101435.84;5088970;28;20201;-66
2021/07/21 06:44:52;;;;;;;0.30;0.30;;;;;;;20.67;44.73;101424.78;5089130;28;20205;-67
2021/07/21 06:47:23;;;;;;;0.53;0.50;;;;;;;20.78;45.12;101448.28;5090250;28;20208;-67
2021/07/21 06:50:05;;;;;;;0.87;0.53;;;;;;;21.48;44.68;101446.66;5089675;28;20225;-67
2021/07/21 06:52:34;;;;;;;0.33;0.33;;;;;;;21.93;43.54;101451.97;5088288;28;20303;-67
2021/07/21 06:55:06;;;;;;;0.30;0.30;;;;;;;22.30;41.95;101453.59;5086247;28;20213;-71
2021/07/21 06:58:03;;;;;;;2.43;0.40;;;;;;;22.37;41.00;101451.94;5086189;28;20219;-72
2021/07/21 07:00:45;;;;;;;0.40;0.27;;;;;;;22.23;40.42;101460.72;5089009;28;20196;-66
2021/07/21 07:03:25;;;;;;;0.20;0.20;;;;;;;21.78;41.31;101415.28;5070087;28;20194;-67
2021/07/21 07:06:12;;;;;;;0.93;0.40;;;;;;;22.20;41.50;101459.19;5085281;28;20211;-67
2021/07/21 07:08:58;;;;;;;0.40;0.40;;;;;;;22.17;40.87;101470.47;5090332;28;20738;-67
2021/07/21 07:11:43;;;;;;;0.13;0.13;;;;;;;21.90;40.93;101482.38;5089517;28;20201;-67
2021/07/21 07:14:11;;;;;;;0.63;0.30;;;;;;;21.92;41.20;101471.28;5090207;28;20664;-66
2021/07/21 07:16:40;;;;;;;0.33;0.33;;;;;;;22.09;41.80;101466.81;5088395;28;20551;-66
2021/07/21 07:19:08;;;;;;;0.67;0.40;;;;;;;22.19;41.66;101468.41;5090543;28;20657;-67
2021/07/21 07:21:37;;;;;;;0.33;0.30;;;;;;;22.50;41.39;101466.03;5088890;28;20693;-67
2021/07/21 07:24:06;;;;;;;0.53;0.30;;;;;;;22.81;40.32;101471.84;5075172;28;20591;-67
2021/07/21 07:26:35;;;;;;;2.57;0.43;;;;;;;22.98;39.82;101422.56;5089723;28;20228;-67
2021/07/21 07:29:05;;;;;;;0.87;0.50;;;;;;;23.54;40.38;101468.38;5086102;28;20673;-67
2021/07/21 07:31:33;;;;;;;2.43;0.30;;;;;;;23.91;39.60;101467.91;5079626;28;20692;-67
2021/07/21 07:34:02;;;;;;;0.57;0.40;;;;;;;23.92;37.78;101468.75;5073656;28;20259;-66
2021/07/21 07:36:30;;;;;;;0.40;0.40;;;;;;;24.00;38.82;101458.63;5089385;28;20576;-67
2021/07/21 07:38:58;;;;;;;0.20;0.20;;;;;;;24.16;37.55;101455.81;5089863;28;20739;-71
2021/07/21 07:41:26;;;;;;;0.77;0.40;;;;;;;23.57;36.78;101469.94;5089346;28;20279;-72
2021/07/21 07:43:54;;;;;;;1.60;0.40;;;;;;;23.53;37.42;101469.41;5076012;28;20669;-71
2021/07/21 07:46:27;;;;;;;0.33;0.33;;;;;;;23.01;38.39;101428.56;5075386;28;20677;-71
2021/07/21 07:48:56;;;;;;;0.40;0.40;;;;;;;23.48;37.84;101477.28;5076758;28;20288;-73
2021/07/21 07:51:29;;;;;;;0.70;0.40;;;;;;;23.58;38.65;101479.91;5089117;28;20212;-67
2021/07/21 07:53:58;;;;;;;0.50;0.50;;;;;;;23.64;38.65;101477.34;5089577;28;20716;-66
2021/07/21 07:56:26;;;;;;;0.33;0.33;;;;;;;23.68;38.39;101472.38;5075276;28;20551;-66
2021/07/21 07:58:54;;;;;;;0.33;0.33;;;;;;;24.05;38.06;101488.28;5076642;28;20741;-67
2021/07/21 08:01:24;;;;;;;0.50;0.40;;;;;;;23.88;37.74;101478.34;5072876;28;20539;-66
2021/07/21 08:03:53;;;;;;;0.37;0.37;;;;;;;24.06;37.16;101481.75;5077847;28;20205;-66
2021/07/21 08:06:21;;;;;;;0.50;0.50;;;;;;;24.00;37.40;101483.31;5083984;28;20205;-66
2021/07/21 08:08:49;;;;;;;0.40;0.37;;;;;;;24.58;36.92;101495.06;5079329;28;20606;-66
2021/07/21 08:11:18;;;;;;;0.73;0.50;;;;;;;24.12;36.56;101486.56;5083541;28;20224;-67
2021/07/21 08:13:46;;;;;;;0.40;0.40;;;;;;;24.47;36.47;101490.78;5088016;28;20577;-67
2021/07/21 08:16:15;;;;;;;0.57;0.20;;;;;;;24.53;36.49;101492.00;5088456;28;20201;-67
2021/07/21 08:18:45;;;;;;;0.47;0.40;;;;;;;24.61;36.34;101489.22;5088794;28;20200;-67
2021/07/21 08:21:13;;;;;;;0.38;0.38;;;;;;;24.93;36.18;101467.09;5075519;28;20252;-67
2021/07/21 08:23:41;;;;;;;0.30;0.30;;;;;;;25.26;35.38;101466.91;5089445;28;20204;-67
2021/07/21 08:26:09;;;;;;;0.53;0.40;;;;;;;25.26;35.06;101488.91;5074158;28;20196;-67
2021/07/21 08:28:38;;;;;;;0.40;0.40;;;;;;;25.07;35.43;101491.09;5087642;28;20232;-72
2021/07/21 08:31:06;;;;;;;0.85;0.30;;;;;;;24.37;35.05;101430.59;5074654;28;20303;-71
2021/07/21 08:33:35;;;;;;;1.27;0.50;;;;;;;24.79;34.49;101487.06;5089442;28;20204;-71
2021/07/21 08:36:05;;;;;;;0.82;0.50;;;;;;;25.24;35.31;101489.09;5078681;28;20197;-72
2021/07/21 08:38:33;;;;;;;0.43;0.20;;;;;;;25.66;35.64;101476.75;5092514;28;20203;-72
2021/07/21 08:41:03;;;;;;;0.40;0.40;;;;;;;25.62;35.13;101487.28;5078858;28;20201;-72
2021/07/21 08:43:31;;;;;;;0.35;0.35;;;;;;;25.45;34.72;101484.84;5084901;28;20200;-72
2021/07/21 08:45:59;;;;;;;0.40;0.40;;;;;;;25.89;34.38;101490.53;5086664;28;20201;-72
2021/07/21 08:48:28;;;;;;;0.60;0.55;;;;;;;25.95;34.90;101482.38;5072738;28;20562;-72
2021/07/21 08:50:56;;;;;;;0.65;0.60;;;;;;;26.27;34.13;101492.22;5086597;28;20738;-71
2021/07/21 08:53:26;;;;;;;0.50;0.32;;;;;;;26.80;34.71;101504.03;5072474;28;20645;-67
2021/07/21 08:55:55;;;;;;;1.35;0.40;;;;;;;27.19;34.33;101469.75;5085226;28;20211;-66
2021/07/21 08:58:24;;;;;;;0.40;0.40;;;;;;;27.55;34.39;101466.94;5092520;28;20201;-66
2021/07/21 09:00:56;;;;;;;0.50;0.50;;;;;;;27.86;33.98;101471.28;5093035;28;20229;-67
2021/07/21 09:03:26;;;;;;;0.40;0.40;;;;;;;28.35;33.76;101498.91;5093009;28;20742;-68
2021/07/21 09:05:55;;;;;;;0.40;0.40;;;;;;;28.60;33.22;101508.44;5092513;28;20219;-72
2021/07/21 09:08:24;;;;;;;0.32;0.32;;;;;;;28.37;32.59;101496.78;5091069;28;20564;-72
2021/07/21 09:10:53;;;;;;;0.38;0.38;;;;;;;28.73;33.35;101505.72;5092496;28;20228;-71
2021/07/21 09:13:23;;;;;;;0.60;0.60;;;;;;;29.03;32.94;101488.88;5091982;28;20224;-71
2021/07/21 09:15:51;;;;;;;0.57;0.30;;;;;;;29.06;32.88;101492.06;5092938;28;20335;-71
2021/07/21 09:18:22;;;;;;;0.45;0.45;;;;;;;29.44;33.11;101493.50;5091917;28;20588;-71
2021/07/21 09:21:07;;;;;;;0.30;0.30;;;;;;;29.93;32.86;101501.44;5091974;28;20232;-71
2021/07/21 09:23:40;;;;;;;1.02;0.50;;;;;;;30.32;32.60;101503.41;5077775;28;20201;-71
2021/07/21 09:26:11;;;;;;;0.55;0.43;;;;;;;30.53;31.95;101497.56;5092537;28;20288;-72
2021/07/21 09:28:42;;;;;;;0.30;0.30;;;;;;;30.76;31.94;101502.66;5091807;28;20285;-71
2021/07/21 09:31:13;;;;;;;0.98;0.47;;;;;;;31.01;31.66;101486.13;5092720;28;20311;-72
2021/07/21 09:33:44;;;;;;;0.40;0.40;;;;;;;31.13;31.02;101476.03;5092721;28;20196;-72
2021/07/21 09:36:19;;;;;;;0.55;0.35;;;;;;;31.58;30.30;101506.56;5085918;28;20198;-71
2021/07/21 09:38:48;;;;;;;0.40;0.40;;;;;;;31.73;31.37;101496.00;5085817;28;20200;-71
2021/07/21 09:41:19;;;;;;;0.65;0.30;;;;;;;31.95;30.61;101499.25;5077533;28;20620;-71
2021/07/21 09:43:47;;;;;;;0.28;0.28;;;;;;;31.13;27.93;101500.16;5092497;28;20295;-71
2021/07/21 09:46:16;;;;;;;0.90;0.40;;;;;;;31.26;29.96;101461.28;5090069;28;20261;-71
2021/07/21 09:48:46;;;;;;;0.32;0.30;;;;;;;31.54;29.40;101508.09;5092287;28;20251;-71
2021/07/21 09:51:27;;;;;;;0.35;0.35;;;;;;;31.65;27.86;101504.59;5091479;28;20208;-72
2021/07/21 09:53:56;;;;;;;0.82;0.40;;;;;;;31.08;28.65;101498.06;5091996;28;20238;-71
2021/07/21 09:56:32;;;;;;;0.45;0.40;;;;;;;31.26;29.25;101500.16;5091403;28;20246;-71
2021/07/21 09:59:24;;;;;;;0.30;0.30;;;;;;;31.29;28.80;101504.41;5080056;28;20205;-72
2021/07/21 10:01:54;;;;;;;0.50;0.47;;;;;;;31.26;30.17;101490.97;5074850;28;20197;-66
2021/07/21 10:04:34;;;;;;;2.83;0.40;;;;;;;31.38;28.38;101491.94;5090831;28;20196;-71
2021/07/21 10:07:14;;;;;;;1.67;0.40;;;;;;;30.77;29.50;101506.28;5083987;28;20665;-71
2021/07/21 10:09:42;;;;;;;1.20;0.40;;;;;;;29.69;30.13;101491.81;5087356;28;20201;-71
2021/07/21 10:12:16;;;;;;;1.65;0.50;;;;;;;30.08;30.06;101487.41;5091791;28;20273;-66
2021/07/21 10:14:57;;;;;;;1.40;0.45;;;;;;;29.96;29.15;101468.63;5074949;28;20221;-66
2021/07/21 10:17:25;;;;;;;1.77;0.55;;;;;;;30.50;30.15;101492.47;5080863;28;20208;-66
2021/07/21 10:19:54;;;;;;;0.63;0.63;;;;;;;30.54;29.84;101490.94;5075087;28;20205;-72
2021/07/21 10:22:22;;;;;;;0.50;0.50;;;;;;;30.81;31.07;101446.50;5086111;28;20696;-67
2021/07/21 10:24:51;;;;;;;0.55;0.55;;;;;;;30.89;29.49;101438.78;5091217;28;20275;-66
2021/07/21 10:27:21;;;;;;;0.50;0.50;;;;;;;31.39;28.92;101488.09;5087478;28;20201;-71
2021/07/21 10:29:53;;;;;;;0.50;0.50;;;;;;;31.50;29.38;101482.66;5080780;28;20192;-66
2021/07/21 10:32:21;;;;;;;0.93;0.70;;;;;;;31.64;28.55;101483.44;5089152;28;20224;-66
2021/07/21 10:34:51;;;;;;;0.52;0.52;;;;;;;31.86;28.37;101477.53;5091179;28;20284;-67
2021/07/21 10:37:19;;;;;;;0.55;0.52;;;;;;;31.77;29.20;101477.81;5074750;28;20284;-67
2021/07/21 10:39:52;;;;;;;1.10;0.55;;;;;;;31.69;28.62;101482.75;5079184;28;20530;-67
2021/07/21 10:42:23;;;;;;;0.50;0.50;;;;;;;32.00;28.92;101487.47;5076454;28;20568;-67
2021/07/21 10:44:58;;;;;;;3.08;0.80;;;;;;;31.86;27.86;101483.94;5090723;28;20637;-67
2021/07/21 10:47:31;;;;;;;1.20;0.50;;;;;;;31.52;26.36;101486.06;5089770;28;20200;-66
2021/07/21 10:50:25;;;;;;;2.50;0.60;;;;;;;31.02;29.31;101482.28;5090461;28;20288;-72
2021/07/21 10:59:16;;;;;;;1.83;0.63;;;;;;;30.06;27.66;101451.59;5077148;28;20223;-71
2021/07/21 11:01:45;;;;;;;14.38;1.30;;;;;;;30.28;28.23;101483.53;5070515;28;20195;-67
2021/07/21 11:04:16;;;;;;;14.98;1.35;;;;;;;30.85;29.58;101476.38;5083618;28;20250;-71
2021/07/21 11:06:46;;;;;;;0.60;0.60;;;;;;;30.91;28.32;101480.19;5089586;28;20493;-66
2021/07/21 11:09:23;;;;;;;0.50;0.50;;;;;;;31.08;27.27;101469.44;5077816;28;20223;-66
2021/07/21 11:11:54;;;;;;;1.02;0.90;;;;;;;31.16;29.11;101469.22;5087938;28;20557;-71
2021/07/21 11:14:26;;;;;;;3.63;0.43;;;;;;;31.29;28.11;101474.69;5077462;28;20197;-67
2021/07/21 11:16:56;;;;;;;0.50;0.50;;;;;;;31.50;29.39;101479.88;5089458;28;20208;-66
2021/07/21 11:19:39;;;;;;;0.50;0.50;;;;;;;31.71;30.01;101475.94;5077937;28;20693;-66
2021/07/21 11:22:10;;;;;;;0.40;0.40;;;;;;;31.57;29.30;101476.25;5084361;28;20720;-72
2021/07/21 11:25:02;;;;;;;0.43;0.40;;;;;;;30.83;26.79;101474.88;5086520;28;20236;-71
2021/07/21 11:27:42;;;;;;;0.50;0.50;;;;;;;30.58;26.35;101470.03;5089551;28;20279;-72
2021/07/21 11:30:37;;;;;;;0.40;0.40;;;;;;;29.95;26.11;101474.38;5090204;28;20687;-70
2021/07/21 11:33:43;;;;;;;0.60;0.60;;;;;;;29.65;26.96;101473.94;5072012;28;20217;-71
2021/07/21 11:36:12;;;;;;;0.40;0.40;;;;;;;29.89;27.41;101472.47;5073314;28;20235;-66
2021/07/21 11:38:49;;;;;;;0.40;0.40;;;;;;;30.20;28.57;101469.06;5090004;28;20201;-67
2021/07/21 11:41:51;;;;;;;0.73;0.73;;;;;;;30.64;27.18;101467.50;5087590;28;20192;-66
2021/07/21 11:44:28;;;;;;;0.50;0.50;;;;;;;30.79;26.54;101456.97;5086926;28;20271;-66
2021/07/21 11:47:00;;;;;;;0.47;0.47;;;;;;;30.59;27.53;101468.97;5089455;28;20206;-67
2021/07/21 11:49:30;;;;;;;0.40;0.35;;;;;;;31.06;29.45;101469.66;5086763;28;20704;-66
2021/07/21 11:52:00;;;;;;;0.40;0.40;;;;;;;31.38;30.60;101466.94;5087599;28;20318;-66
2021/07/21 11:54:30;;;;;;;0.90;0.90;;;;;;;31.43;28.69;101479.09;5074282;28;20205;-66
2021/07/21 11:57:00;;;;;;;1.42;0.52;;;;;;;31.24;29.55;101468.13;5078480;28;20200;-67
2021/07/21 11:59:30;;;;;;;0.70;0.70;;;;;;;31.07;28.84;101463.03;5077120;28;20201;-67
2021/07/21 12:02:07;;;;;;;1.45;0.57;;;;;;;30.82;26.75;101456.53;5076664;28;20840;-67